createdAt,value
2018-07-19T00:03:07.296Z,91.63
2018-07-19T00:05:35.791Z,93.30
2018-07-19T00:08:04.280Z,92.99
2018-07-19T00:10:33.089Z,91.91
2018-07-19T00:13:01.525Z,93.78
2018-07-19T00:15:30.020Z,94.12
2018-07-19T00:17:58.898Z,94.46
2018-07-19T00:20:27.946Z,96.13
2018-07-19T00:22:56.641Z,97.78
2018-07-19T00:25:25.096Z,95.98
2018-07-19T00:27:53.777Z,96.65
2018-07-19T00:30:22.320Z,95.83
2018-07-19T00:32:50.848Z,95.57
2018-07-19T00:35:19.327Z,95.28
2018-07-19T00:37:47.777Z,95.68
2018-07-19T00:40:16.239Z,95.98
2018-07-19T00:42:44.714Z,97.91
2018-07-19T00:45:13.297Z,96.37
2018-07-19T00:47:41.901Z,94.78
2018-07-19T00:50:10.424Z,95.46
2018-07-19T00:52:38.861Z,97.33
2018-07-19T00:55:07.979Z,97.14
2018-07-19T00:57:36.471Z,96.17
2018-07-19T01:00:05.019Z,97.61
2018-07-19T01:02:33.484Z,98.79
2018-07-19T01:05:01.932Z,97.61
2018-07-19T01:07:30.413Z,96.91
2018-07-19T01:09:58.860Z,96.81
2018-07-19T01:12:27.367Z,98.65
2018-07-19T01:14:55.799Z,97.62
2018-07-19T01:17:24.222Z,98.68
2018-07-19T01:19:52.724Z,100.00
2018-07-19T01:22:21.327Z,100.00
2018-07-19T01:24:49.796Z,100.00
2018-07-19T01:27:18.253Z,100.00
2018-07-19T01:29:46.778Z,100.00
2018-07-19T01:32:15.240Z,100.00
2018-07-19T01:34:43.767Z,100.00
2018-07-19T01:37:12.457Z,100.00
2018-07-19T01:39:40.944Z,100.00
2018-07-19T01:42:41.743Z,100.00
2018-07-19T01:45:11.019Z,100.00
2018-07-19T01:47:39.959Z,100.00
2018-07-19T01:50:09.528Z,100.00
2018-07-19T01:52:38.182Z,100.00
2018-07-19T01:55:07.278Z,100.00
2018-07-19T01:57:35.699Z,100.00
2018-07-19T02:00:05.085Z,100.00
2018-07-19T02:02:33.584Z,100.00
2018-07-19T02:05:02.064Z,100.00
2018-07-19T02:07:30.560Z,100.00
2018-07-19T02:09:59.212Z,100.00
2018-07-19T02:12:27.696Z,100.00
2018-07-19T02:14:56.131Z,100.00
2018-07-19T02:17:24.583Z,100.00
2018-07-19T02:19:53.043Z,100.00
2018-07-19T02:22:21.728Z,100.00
2018-07-19T02:24:50.221Z,100.00
2018-07-19T02:27:18.689Z,100.00
2018-07-19T02:29:47.099Z,100.00
2018-07-19T02:32:15.543Z,100.00
2018-07-19T02:34:44.065Z,100.00
2018-07-19T02:37:12.576Z,100.00
2018-07-19T02:39:41.104Z,100.00
2018-07-19T02:42:09.615Z,100.00
2018-07-19T02:44:38.568Z,100.00
2018-07-19T02:47:06.998Z,100.00
2018-07-19T02:49:35.767Z,100.00
2018-07-19T02:52:04.330Z,100.00
2018-07-19T02:54:32.919Z,100.00
2018-07-19T02:57:01.547Z,100.00
2018-07-19T02:59:30.031Z,100.00
2018-07-19T03:01:58.478Z,98.78
2018-07-19T03:04:26.978Z,100.00
2018-07-19T03:06:55.420Z,100.00
2018-07-19T03:09:24.219Z,100.00
2018-07-19T03:11:52.716Z,100.00
2018-07-19T03:14:21.625Z,100.00
2018-07-19T03:16:50.058Z,100.00
2018-07-19T03:19:18.520Z,100.00
2018-07-19T03:21:47.014Z,100.00
2018-07-19T03:24:15.484Z,100.00
2018-07-19T03:26:43.924Z,100.00
2018-07-19T03:29:12.390Z,96.39
2018-07-19T03:31:41.009Z,100.00
2018-07-19T03:34:09.464Z,100.00
2018-07-19T03:36:37.915Z,100.00
2018-07-19T03:39:08.996Z,100.00
2018-07-19T03:41:37.432Z,100.00
2018-07-19T03:44:06.119Z,100.00
2018-07-19T03:46:34.819Z,100.00
2018-07-19T03:49:03.377Z,97.37
2018-07-19T03:51:31.846Z,94.64
2018-07-19T03:54:00.324Z,100.00
2018-07-19T03:56:28.803Z,100.00
2018-07-19T03:58:57.315Z,100.00
2018-07-19T04:01:25.759Z,100.00
2018-07-19T04:03:54.267Z,100.00
2018-07-19T04:06:22.705Z,100.00
2018-07-19T04:08:51.188Z,100.00
2018-07-19T04:11:19.672Z,100.00
2018-07-19T04:13:48.337Z,100.00
2018-07-19T04:16:16.811Z,100.00
2018-07-19T04:18:45.288Z,100.00
2018-07-19T04:21:13.782Z,100.00
2018-07-19T04:23:42.600Z,100.00
2018-07-19T04:26:11.303Z,100.00
2018-07-19T04:28:39.795Z,100.00
2018-07-19T04:31:08.272Z,100.00
2018-07-19T04:33:36.770Z,100.00
2018-07-19T04:36:05.272Z,100.00
2018-07-19T04:38:33.763Z,100.00
2018-07-19T04:41:02.219Z,100.00
2018-07-19T04:43:30.658Z,100.00
2018-07-19T04:45:59.139Z,100.00
2018-07-19T04:48:28.390Z,100.00
2018-07-19T04:50:56.964Z,100.00
2018-07-19T04:53:25.410Z,100.00
2018-07-19T04:55:53.878Z,100.00
2018-07-19T04:58:23.481Z,100.00
2018-07-19T05:00:52.812Z,100.00
2018-07-19T05:03:21.396Z,100.00
2018-07-19T05:05:49.888Z,100.00
2018-07-19T05:08:18.765Z,100.00
2018-07-19T05:10:47.200Z,100.00
2018-07-19T05:13:15.716Z,100.00
2018-07-19T05:15:44.788Z,100.00
2018-07-19T05:18:13.262Z,100.00
2018-07-19T05:20:41.777Z,100.00
2018-07-19T05:23:10.507Z,100.00
2018-07-19T05:25:38.949Z,100.00
2018-07-19T05:28:07.413Z,100.00
2018-07-19T05:30:35.955Z,100.00
2018-07-19T05:33:04.483Z,100.00
2018-07-19T05:35:33.208Z,100.00
2018-07-19T05:38:01.708Z,98.10
2018-07-19T05:40:30.216Z,97.19
2018-07-19T05:42:58.696Z,96.57
2018-07-19T05:45:27.537Z,95.29
2018-07-19T05:47:55.995Z,96.13
2018-07-19T05:50:24.543Z,94.01
2018-07-19T05:52:53.039Z,94.39
2018-07-19T05:55:22.044Z,93.85
2018-07-19T05:57:50.609Z,92.99
2018-07-19T06:00:19.103Z,92.12
2018-07-19T06:02:47.587Z,91.65
2018-07-19T06:05:16.093Z,91.16
2018-07-19T06:07:44.844Z,89.90
2018-07-19T06:10:13.344Z,87.59
2018-07-19T06:12:41.828Z,88.48
2018-07-19T06:15:10.296Z,88.86
2018-07-19T06:17:38.727Z,88.58
2018-07-19T06:20:08.718Z,88.22
2018-07-19T06:22:37.237Z,86.71
2018-07-19T06:25:06.126Z,85.02
2018-07-19T06:27:34.859Z,84.19
2018-07-19T06:30:03.421Z,83.26
2018-07-19T06:32:31.927Z,82.97
2018-07-19T06:35:00.651Z,82.26
2018-07-19T06:37:29.120Z,81.99
2018-07-19T06:39:57.667Z,80.60
2018-07-19T06:42:26.243Z,79.94
2018-07-19T06:44:54.736Z,78.55
2018-07-19T06:47:23.205Z,79.09
2018-07-19T06:49:51.683Z,78.23
2018-07-19T06:52:20.139Z,78.69
2018-07-19T06:54:48.631Z,77.24
2018-07-19T06:57:17.094Z,73.18
2018-07-19T06:59:45.555Z,72.63
2018-07-19T07:02:14.336Z,72.53
2018-07-19T07:04:43.052Z,72.47
2018-07-19T07:07:11.531Z,71.84
2018-07-19T07:09:39.987Z,70.27
2018-07-19T07:22:05.719Z,68.67
2018-07-19T07:24:34.222Z,65.93
2018-07-19T07:27:02.671Z,64.67
2018-07-19T07:29:31.140Z,65.15
2018-07-19T07:31:59.696Z,62.93
2018-07-19T07:34:28.512Z,63.01
2018-07-19T07:36:56.977Z,62.75
2018-07-19T07:39:25.501Z,61.15
2018-07-19T07:41:54.017Z,59.22
2018-07-19T07:44:22.968Z,59.79
2018-07-19T07:46:51.471Z,59.13
2018-07-19T07:49:19.930Z,57.46
2018-07-19T07:51:48.369Z,57.01
2018-07-19T07:54:16.938Z,56.07
2018-07-19T07:56:45.534Z,57.49
2018-07-19T07:59:14.056Z,57.78
2018-07-19T08:01:42.499Z,57.51
2018-07-19T08:04:11.004Z,57.70
2018-07-19T08:06:39.440Z,57.89
2018-07-19T08:09:09.368Z,58.04
2018-07-19T08:11:38.186Z,57.78
2018-07-19T08:14:06.763Z,56.72
2018-07-19T08:16:35.203Z,56.35
2018-07-19T08:19:03.739Z,54.04
2018-07-19T08:21:32.343Z,53.94
2018-07-19T08:24:00.810Z,54.16
2018-07-19T08:26:29.312Z,53.72
2018-07-19T08:28:57.825Z,53.77
2018-07-19T08:31:26.320Z,53.18
2018-07-19T08:33:54.771Z,52.30
2018-07-19T08:36:23.223Z,52.30
2018-07-19T08:38:51.743Z,52.20
2018-07-19T08:41:20.191Z,51.40
2018-07-19T08:43:48.651Z,51.69
2018-07-19T08:46:17.097Z,51.28
2018-07-19T08:48:45.622Z,50.35
2018-07-19T08:51:14.052Z,50.58
2018-07-19T08:53:42.582Z,50.84
2018-07-19T08:56:11.030Z,50.19
2018-07-19T08:58:39.583Z,49.06
2018-07-19T09:01:08.096Z,49.36
2018-07-19T09:03:36.553Z,50.04
2018-07-19T09:06:05.060Z,48.31
2018-07-19T09:08:33.564Z,48.72
2018-07-19T09:11:02.011Z,50.54
2018-07-19T09:13:30.664Z,48.37
2018-07-19T09:15:59.175Z,48.15
2018-07-19T09:18:27.804Z,46.95
2018-07-19T09:20:56.311Z,46.61
2018-07-19T09:23:24.770Z,47.62
2018-07-19T09:25:53.374Z,45.22
2018-07-19T09:28:22.319Z,47.32
2018-07-19T09:30:50.781Z,47.41
2018-07-19T09:36:18.528Z,46.36
2018-07-19T09:38:47.003Z,46.92
2018-07-19T09:41:15.441Z,45.87
2018-07-19T09:43:43.860Z,46.62
2018-07-19T09:46:12.336Z,44.48
2018-07-19T09:48:40.777Z,43.78
2018-07-19T09:51:09.247Z,43.55
2018-07-19T09:53:37.815Z,44.09
2018-07-19T09:56:06.331Z,43.91
2018-07-19T09:58:34.818Z,45.06
2018-07-19T10:01:08.627Z,44.02
2018-07-19T10:03:37.149Z,43.21
2018-07-19T10:06:05.625Z,43.65
2018-07-19T10:08:34.100Z,42.25
2018-07-19T10:11:02.799Z,39.27
2018-07-19T10:13:31.304Z,39.74
2018-07-19T10:16:00.075Z,39.46
2018-07-19T10:18:28.723Z,41.39
2018-07-19T10:20:57.223Z,41.33
2018-07-19T10:23:26.059Z,41.41
2018-07-19T10:25:55.621Z,40.92
2018-07-19T10:28:24.076Z,40.17
2018-07-19T10:30:52.557Z,40.93
2018-07-19T10:33:21.322Z,39.73
2018-07-19T10:35:49.999Z,37.68
2018-07-19T10:38:18.503Z,37.65
2018-07-19T10:40:47.056Z,38.04
2018-07-19T10:43:15.533Z,38.32
2018-07-19T10:45:44.315Z,39.24
2018-07-19T10:48:12.787Z,35.02
2018-07-19T10:50:41.399Z,35.90
2018-07-19T10:53:09.839Z,36.20
2018-07-19T10:55:38.241Z,35.44
2018-07-19T10:58:06.790Z,34.64
2018-07-19T11:00:35.220Z,34.16
2018-07-19T11:03:03.923Z,33.91
2018-07-19T11:05:32.384Z,33.73
2018-07-19T11:08:00.782Z,32.94
2018-07-19T11:10:29.244Z,32.62
2018-07-19T11:12:57.847Z,31.69
2018-07-19T11:15:26.648Z,30.43
2018-07-19T11:17:55.636Z,33.15
2018-07-19T11:20:24.923Z,34.33
2018-07-19T11:22:53.414Z,33.33
2018-07-19T11:25:21.896Z,33.59
2018-07-19T11:27:50.314Z,35.28
2018-07-19T11:30:18.720Z,34.82
2018-07-19T11:32:47.232Z,34.79
2018-07-19T11:35:15.662Z,34.79
2018-07-19T11:37:44.342Z,32.95
2018-07-19T11:40:12.745Z,35.34
2018-07-19T11:42:41.155Z,33.94
2018-07-19T11:45:09.604Z,32.72
2018-07-19T11:47:38.039Z,31.41
2018-07-19T11:50:06.788Z,33.22
2018-07-19T11:52:35.211Z,31.61
2018-07-19T11:55:03.914Z,30.52
2018-07-19T11:57:32.310Z,30.89
2018-07-19T12:00:00.743Z,31.13
2018-07-19T12:02:29.237Z,29.79
2018-07-19T12:04:58.057Z,29.41
2018-07-19T12:07:26.532Z,31.01
2018-07-19T12:09:54.927Z,28.58
2018-07-19T12:12:23.362Z,28.79
2018-07-19T12:14:51.836Z,29.81
2018-07-19T12:17:20.295Z,32.16
2018-07-19T12:19:48.721Z,30.54
2018-07-19T12:22:17.292Z,30.61
2018-07-19T12:24:46.314Z,31.28
2018-07-19T12:27:15.391Z,33.10
2018-07-19T12:29:44.019Z,32.37
2018-07-19T12:32:12.474Z,29.79
2018-07-19T12:34:40.874Z,29.79
2018-07-19T12:37:09.324Z,29.03
2018-07-19T12:39:37.755Z,28.86
2018-07-19T12:42:06.184Z,26.84
2018-07-19T12:44:34.641Z,25.56
2018-07-19T12:47:03.364Z,25.46
2018-07-19T12:49:31.846Z,25.89
2018-07-19T12:52:00.372Z,26.17
2018-07-19T12:54:28.806Z,27.79
2018-07-19T12:56:57.459Z,27.76
2018-07-19T12:59:25.897Z,28.31
2018-07-19T13:01:54.749Z,28.00
2018-07-19T13:04:23.496Z,27.32
2018-07-19T13:06:51.897Z,27.09
2018-07-19T13:09:20.574Z,27.07
2018-07-19T13:11:49.006Z,26.03
2018-07-19T13:14:17.501Z,26.37
2018-07-19T13:16:46.092Z,26.90
2018-07-19T13:19:14.574Z,25.96
2018-07-19T13:21:43.025Z,27.39
2018-07-19T13:24:11.542Z,27.02
2018-07-19T13:26:40.040Z,27.54
2018-07-19T13:29:08.434Z,26.84
2018-07-19T13:31:36.951Z,26.58
2018-07-19T13:34:05.915Z,26.03
2018-07-19T13:36:34.631Z,25.63
2018-07-19T13:39:03.511Z,27.10
2018-07-19T13:41:31.974Z,27.13
2018-07-19T13:44:00.683Z,25.44
2018-07-19T13:46:29.105Z,27.17
2018-07-19T13:48:57.525Z,25.80
2018-07-19T13:51:26.027Z,25.84
2018-07-19T13:54:18.721Z,26.54
2018-07-19T13:56:47.408Z,26.43
2018-07-19T13:59:16.698Z,26.50
2018-07-19T14:01:45.222Z,24.60
2018-07-19T14:04:13.776Z,24.66
2018-07-19T14:06:42.232Z,24.49
2018-07-19T14:09:13.657Z,25.09
2018-07-19T14:11:42.308Z,24.40
2018-07-19T14:14:11.307Z,24.56
2018-07-19T14:16:39.758Z,24.52
2018-07-19T14:19:08.479Z,23.37
2018-07-19T14:21:36.939Z,23.35
2018-07-19T14:24:05.521Z,25.38
2018-07-19T14:26:33.957Z,25.22
2018-07-19T14:29:02.375Z,23.20
2018-07-19T14:31:30.847Z,24.61
2018-07-19T14:33:59.274Z,24.35
2018-07-19T14:36:27.730Z,25.24
2018-07-19T14:38:56.173Z,23.94
2018-07-19T14:41:24.762Z,24.61
2018-07-19T14:43:53.211Z,23.03
2018-07-19T14:46:22.264Z,25.07
2018-07-19T14:48:51.103Z,23.85
2018-07-19T14:51:19.563Z,24.04
2018-07-19T14:53:47.990Z,23.47
2018-07-19T14:56:16.564Z,23.49
2018-07-19T14:58:44.983Z,25.11
2018-07-19T15:01:13.855Z,24.14
2018-07-19T15:03:42.316Z,23.31
2018-07-19T15:06:10.771Z,23.65
2018-07-19T15:08:39.208Z,22.90
2018-07-19T15:11:07.699Z,23.46
2018-07-19T15:13:36.189Z,23.87
2018-07-19T15:16:04.643Z,24.40
2018-07-19T15:18:33.071Z,22.80
2018-07-19T15:21:01.526Z,21.57
2018-07-19T15:23:29.954Z,21.78
2018-07-19T15:25:58.780Z,21.19
2018-07-19T15:28:27.226Z,22.67
2018-07-19T15:30:55.825Z,22.70
2018-07-19T15:33:24.647Z,21.14
2018-07-19T15:35:53.099Z,22.15
2018-07-19T15:38:21.547Z,21.90
2018-07-19T15:40:49.987Z,23.42
2018-07-19T15:43:18.484Z,22.56
2018-07-19T15:45:46.932Z,23.75
2018-07-19T15:48:15.385Z,23.73
2018-07-19T15:50:44.096Z,22.48
2018-07-19T15:53:12.563Z,22.71
2018-07-19T15:55:41.009Z,21.80
2018-07-19T16:00:52.385Z,24.64
2018-07-19T16:03:20.859Z,23.21
2018-07-19T16:05:49.322Z,22.83
2018-07-19T16:08:17.826Z,22.22
2018-07-19T16:10:46.263Z,22.92
2018-07-19T16:13:14.928Z,20.97
2018-07-19T16:15:43.388Z,21.67
2018-07-19T16:18:11.872Z,23.04
2018-07-19T16:20:40.413Z,21.49
2018-07-19T16:23:08.830Z,21.91
2018-07-19T16:25:37.235Z,21.02
2018-07-19T16:28:05.793Z,21.99
2018-07-19T16:30:34.455Z,21.36
2018-07-19T16:33:03.175Z,22.54
2018-07-19T16:35:31.584Z,22.01
2018-07-19T16:38:00.036Z,21.34
2018-07-19T16:40:28.458Z,21.81
2018-07-19T16:42:56.962Z,23.02
2018-07-19T16:45:25.679Z,21.70
2018-07-19T16:47:54.392Z,21.60
2018-07-19T16:50:22.824Z,20.41
2018-07-19T16:52:51.264Z,21.18
2018-07-19T16:55:19.762Z,21.54
2018-07-19T16:57:48.513Z,22.04
2018-07-19T17:00:16.915Z,20.93
2018-07-19T17:02:45.943Z,20.79
2018-07-19T17:05:14.452Z,20.21
2018-07-19T17:07:42.876Z,20.52
2018-07-19T17:10:11.261Z,22.11
2018-07-19T17:12:39.701Z,21.97
2018-07-19T17:15:08.152Z,21.39
2018-07-19T17:17:37.018Z,21.77
2018-07-19T17:20:05.784Z,21.48
2018-07-19T17:22:34.246Z,22.66
2018-07-19T17:25:03.629Z,22.19
2018-07-19T17:27:32.137Z,23.12
2018-07-19T17:30:00.661Z,22.38
2018-07-19T17:32:29.147Z,22.66
2018-07-19T17:34:57.759Z,21.48
2018-07-19T17:37:26.274Z,23.18
2018-07-19T17:39:55.012Z,23.18
2018-07-19T17:42:23.692Z,23.27
2018-07-19T17:44:52.118Z,23.71
2018-07-19T17:47:21.079Z,23.44
2018-07-19T17:49:49.581Z,24.06
2018-07-19T17:52:18.003Z,24.57
2018-07-19T17:54:46.432Z,24.02
2018-07-19T17:57:14.909Z,26.01
2018-07-19T17:59:43.705Z,25.39
2018-07-19T18:02:12.140Z,25.31
2018-07-19T18:04:40.596Z,24.89
2018-07-19T18:07:09.058Z,25.07
2018-07-19T18:09:37.474Z,25.98
2018-07-19T18:12:05.961Z,25.66
2018-07-19T18:14:34.447Z,25.73
2018-07-19T18:17:02.846Z,26.50
2018-07-19T18:19:31.323Z,25.91
2018-07-19T18:21:59.757Z,26.97
2018-07-19T18:24:28.225Z,28.62
2018-07-19T18:26:56.679Z,27.89
2018-07-19T18:29:25.100Z,29.29
2018-07-19T18:31:53.748Z,31.10
2018-07-19T18:34:22.318Z,31.90
2018-07-19T18:36:50.727Z,30.87
2018-07-19T18:39:19.168Z,32.63
2018-07-19T18:41:47.626Z,33.89
2018-07-19T18:44:16.093Z,33.98
2018-07-19T18:46:44.625Z,34.94
2018-07-19T18:49:13.971Z,34.17
2018-07-19T18:51:42.455Z,35.83
2018-07-19T18:54:11.195Z,35.78
2018-07-19T18:56:39.678Z,36.00
2018-07-19T18:59:08.150Z,36.21
2018-07-19T19:01:36.576Z,37.39
2018-07-19T19:04:05.181Z,37.67
2018-07-19T19:06:33.722Z,38.21
2018-07-19T19:09:02.293Z,38.63
2018-07-19T19:11:30.775Z,38.51
2018-07-19T19:13:59.299Z,38.79
2018-07-19T19:16:27.864Z,38.61
2018-07-19T19:18:56.337Z,39.03
2018-07-19T19:21:25.082Z,39.06
2018-07-19T19:23:53.756Z,39.64
2018-07-19T19:26:22.207Z,40.67
2018-07-19T19:28:50.664Z,40.64
2018-07-19T19:31:19.285Z,39.89
2018-07-19T19:33:47.733Z,40.39
2018-07-19T19:36:16.179Z,40.36
2018-07-19T19:38:44.874Z,40.50
2018-07-19T19:41:13.537Z,42.85
2018-07-19T19:43:42.043Z,43.05
2018-07-19T19:46:10.771Z,44.28
2018-07-19T19:48:39.251Z,44.48
2018-07-19T19:51:08.079Z,45.06
2018-07-19T19:53:37.042Z,45.82
2018-07-19T19:56:05.539Z,46.36
2018-07-19T19:58:34.509Z,45.41
2018-07-19T20:01:02.976Z,45.01
2018-07-19T20:03:31.383Z,45.67
2018-07-19T20:05:59.944Z,46.71
2018-07-19T20:08:28.497Z,49.77
2018-07-19T20:10:56.963Z,50.19
2018-07-19T20:13:25.435Z,49.96
2018-07-19T20:15:53.836Z,48.65
2018-07-19T20:18:22.321Z,50.23
2018-07-19T20:20:50.750Z,50.57
2018-07-19T20:23:19.386Z,50.67
2018-07-19T20:25:47.800Z,49.43
2018-07-19T20:28:16.733Z,50.88
2018-07-19T20:30:45.548Z,50.25
2018-07-19T20:33:14.270Z,50.52
2018-07-19T20:35:42.727Z,50.82
2018-07-19T20:38:11.260Z,51.56
2018-07-19T20:40:40.063Z,50.74
2018-07-19T20:43:08.931Z,50.72
2018-07-19T20:45:37.358Z,50.58
2018-07-19T20:48:05.827Z,55.61
2018-07-19T20:50:34.645Z,52.42
2018-07-19T20:53:03.244Z,50.82
2018-07-19T20:55:31.736Z,49.77
2018-07-19T20:58:00.245Z,53.44
2018-07-19T21:00:29.229Z,57.51
2018-07-19T21:02:57.671Z,56.74
2018-07-19T21:05:26.356Z,57.39
2018-07-19T21:07:55.069Z,57.53
2018-07-19T21:10:23.636Z,57.22
2018-07-19T21:12:52.587Z,58.20
2018-07-19T21:15:21.012Z,57.43
2018-07-19T21:17:49.954Z,60.81
2018-07-19T21:20:18.489Z,60.06
2018-07-19T21:22:46.927Z,59.44
2018-07-19T21:25:15.383Z,60.35
2018-07-19T21:27:43.866Z,61.86
2018-07-19T21:30:12.635Z,62.66
2018-07-19T21:32:41.051Z,64.95
2018-07-19T21:35:09.514Z,64.29
2018-07-19T21:37:38.150Z,63.01
2018-07-19T21:40:06.722Z,64.74
2018-07-19T21:42:35.435Z,65.11
2018-07-19T21:45:04.010Z,64.90
2018-07-19T21:47:32.878Z,64.16
2018-07-19T21:50:01.321Z,66.13
2018-07-19T21:52:29.755Z,67.53
2018-07-19T21:54:58.231Z,68.26
2018-07-19T21:57:26.685Z,67.02
2018-07-19T21:59:55.375Z,68.17
2018-07-19T22:02:23.814Z,66.26
2018-07-19T22:04:52.232Z,65.98
2018-07-19T22:07:20.709Z,67.98
2018-07-19T22:09:49.383Z,69.30
2018-07-19T22:12:17.835Z,67.14
2018-07-19T22:14:46.272Z,67.66
2018-07-19T22:17:14.755Z,69.15
2018-07-19T22:19:43.159Z,69.40
2018-07-19T22:22:11.589Z,70.44
2018-07-19T22:24:40.107Z,70.80
2018-07-19T22:27:08.538Z,72.17
2018-07-19T22:29:37.081Z,73.04
2018-07-19T22:32:05.838Z,72.59
2018-07-19T22:34:34.333Z,73.24
2018-07-19T22:37:02.782Z,73.93
2018-07-19T22:39:31.223Z,74.29
2018-07-19T22:41:59.712Z,75.15
2018-07-19T22:44:28.239Z,75.57
2018-07-19T22:46:56.721Z,75.67
2018-07-19T22:49:27.931Z,75.85
2018-07-19T22:51:56.376Z,75.86
2018-07-19T22:54:24.830Z,77.23
2018-07-19T22:56:53.315Z,78.39
2018-07-19T22:59:22.343Z,78.65
2018-07-19T23:01:50.775Z,78.59
2018-07-19T23:04:19.272Z,79.01
2018-07-19T23:06:47.751Z,79.47
2018-07-19T23:09:16.235Z,79.47
2018-07-19T23:11:44.679Z,79.63
2018-07-19T23:14:13.207Z,79.86
2018-07-19T23:16:41.651Z,80.57
2018-07-19T23:19:10.138Z,81.51
2018-07-19T23:21:38.582Z,82.13
2018-07-19T23:24:07.075Z,82.54
2018-07-19T23:26:35.639Z,83.81
2018-07-19T23:29:04.111Z,87.46
2018-07-19T23:31:32.663Z,85.06
2018-07-19T23:34:01.190Z,84.15
2018-07-19T23:36:33.795Z,84.37
2018-07-19T23:39:09.329Z,85.99
2018-07-19T23:41:44.771Z,86.13
2018-07-19T23:44:20.575Z,88.33
2018-07-19T23:46:53.923Z,87.59
2018-07-19T23:49:22.442Z,87.13
2018-07-19T23:51:51.095Z,88.01
2018-07-19T23:54:19.561Z,88.14
2018-07-19T23:56:48.095Z,89.34
2018-07-19T23:59:16.531Z,89.36
